Time;durP1;ratioP1;P1;durP2;ratioP2;P2;SDS_P1;SDS_P2;PMS_P1;PMS_P2;Temp;Humidity;BMP_temperature;BMP_pressure;BME280_temperature;BME280_humidity;BME280_pressure;Samples;Min_cycle;Max_cycle;Signal;HPM_P1;HPM_P2
2024/02/19 00:01:08;;;;;;;1999.90;999.90;;;9.50;99.90;;;;;;5032377;28;20262;-71
2024/02/19 00:03:33;;;;;;;1999.90;999.90;;;9.80;99.90;;;;;;5032414;28;20207;-71
2024/02/19 00:05:59;;;;;;;1999.90;999.90;;;9.50;99.90;;;;;;5032783;28;20201;-71
2024/02/19 00:08:25;;;;;;;1999.90;999.90;;;9.40;99.90;;;;;;5032354;28;20171;-71
2024/02/19 00:10:53;;;;;;;1999.90;999.90;;;9.30;99.90;;;;;;5031938;28;20546;-73
2024/02/19 00:13:19;;;;;;;1999.90;999.90;;;9.50;99.90;;;;;;5032126;28;20230;-72
2024/02/19 00:15:45;;;;;;;1999.90;999.90;;;9.30;99.90;;;;;;5031935;28;20439;-71
2024/02/19 00:18:11;;;;;;;1999.90;999.90;;;9.20;99.90;;;;;;5032159;28;20646;-71
2024/02/19 00:20:37;;;;;;;1999.90;999.90;;;9.40;99.90;;;;;;5031918;28;20494;-72
2024/02/19 00:23:02;;;;;;;1999.90;999.90;;;9.10;99.90;;;;;;5032170;28;20294;-74
2024/02/19 00:25:29;;;;;;;1999.90;999.90;;;9.10;99.90;;;;;;5031939;28;20415;-72
2024/02/19 00:27:55;;;;;;;1999.90;999.90;;;9.20;99.90;;;;;;5032029;28;20186;-71
2024/02/19 00:30:21;;;;;;;1999.90;999.90;;;9.50;99.90;;;;;;5032376;28;20408;-71
2024/02/19 00:32:46;;;;;;;1999.90;999.90;;;9.80;99.90;;;;;;5034491;28;20620;-72
2024/02/19 00:35:12;;;;;;;1999.90;999.90;;;9.20;99.90;;;;;;5031967;28;20178;-71
2024/02/19 00:37:37;;;;;;;1999.90;999.90;;;9.30;99.90;;;;;;5031836;28;20186;-72
2024/02/19 00:40:04;;;;;;;1999.90;999.90;;;9.10;99.90;;;;;;5032043;28;20174;-71
2024/02/19 00:42:30;;;;;;;1999.90;999.90;;;9.30;99.90;;;;;;5031767;28;20162;-72
2024/02/19 00:44:55;;;;;;;1999.90;999.90;;;9.20;99.90;;;;;;5031846;28;20480;-72
2024/02/19 00:47:21;;;;;;;1999.90;999.90;;;9.30;99.90;;;;;;5031758;28;20193;-72
2024/02/19 00:49:46;;;;;;;1999.90;999.90;;;9.30;99.90;;;;;;5031512;28;20647;-72
2024/02/19 00:52:12;;;;;;;1999.90;999.90;;;9.20;99.90;;;;;;5031919;28;20193;-72
2024/02/19 00:54:38;;;;;;;1999.90;999.90;;;9.40;99.90;;;;;;5031812;28;20648;-72
2024/02/19 00:57:04;;;;;;;1999.90;999.90;;;9.20;99.90;;;;;;5033528;28;20195;-72
2024/02/19 00:59:29;;;;;;;1999.90;999.90;;;9.40;99.90;;;;;;5033500;28;20912;-72
2024/02/19 01:01:55;;;;;;;1999.90;999.90;;;9.30;99.90;;;;;;5031479;28;20169;-72
2024/02/19 01:04:20;;;;;;;1999.90;999.90;;;9.20;99.90;;;;;;5031706;28;20574;-72
2024/02/19 01:06:46;;;;;;;1999.90;999.90;;;9.10;99.90;;;;;;5031661;28;20208;-72
2024/02/19 01:09:12;;;;;;;1999.90;999.90;;;9.20;99.90;;;;;;5031676;28;20532;-72
2024/02/19 01:11:37;;;;;;;1999.90;999.90;;;9.20;99.90;;;;;;5032153;28;20165;-72
2024/02/19 01:14:03;;;;;;;1999.90;999.90;;;9.20;99.90;;;;;;5033034;28;20241;-72
2024/02/19 01:16:29;;;;;;;1999.90;999.90;;;9.20;99.90;;;;;;5033972;28;20631;-72
2024/02/19 01:18:54;;;;;;;1999.90;999.90;;;9.60;99.90;;;;;;5036736;28;20171;-72
2024/02/19 01:21:20;;;;;;;1999.90;999.90;;;9.10;99.90;;;;;;5035223;28;20397;-72
2024/02/19 01:23:46;;;;;;;1999.90;999.90;;;9.30;99.90;;;;;;5038583;28;20180;-72
2024/02/19 01:26:11;;;;;;;1999.90;999.90;;;9.20;99.90;;;;;;5039564;28;20193;-73
2024/02/19 01:28:37;;;;;;;1999.90;999.90;;;9.60;99.90;;;;;;5039349;28;20654;-73
2024/02/19 01:31:03;;;;;;;1999.90;999.90;;;9.40;99.90;;;;;;5038715;28;20408;-73
2024/02/19 01:33:29;;;;;;;1999.90;999.90;;;9.30;99.90;;;;;;5036508;28;20188;-73
2024/02/19 01:35:55;;;;;;;1999.90;999.90;;;9.10;99.90;;;;;;5037575;28;20432;-73
2024/02/19 01:38:21;;;;;;;1999.90;999.90;;;9.30;99.90;;;;;;5038769;28;20258;-73
2024/02/19 01:40:48;;;;;;;1999.90;999.90;;;9.20;99.90;;;;;;5036564;28;20400;-72
2024/02/19 01:43:15;;;;;;;1999.90;999.90;;;9.10;99.90;;;;;;5038094;28;20412;-73
2024/02/19 01:45:41;;;;;;;1999.90;999.90;;;9.30;99.90;;;;;;5035547;28;20932;-73
2024/02/19 01:48:08;;;;;;;1999.90;999.90;;;9.50;99.90;;;;;;5034930;28;20412;-73
2024/02/19 01:50:35;;;;;;;1999.90;999.90;;;8.90;99.90;;;;;;5035379;28;20570;-73
2024/02/19 01:53:12;;;;;;;1999.90;999.90;;;9.10;99.90;;;;;;5035688;28;20452;-73
2024/02/19 01:55:38;;;;;;;1999.90;999.90;;;9.10;99.90;;;;;;5034873;28;20425;-73
2024/02/19 01:58:06;;;;;;;1999.90;999.90;;;9.50;99.90;;;;;;5035610;28;20406;-73
2024/02/19 02:00:32;;;;;;;1999.90;999.90;;;9.50;99.90;;;;;;5036679;28;20406;-73
2024/02/19 02:02:58;;;;;;;1999.90;999.90;;;9.50;99.90;;;;;;5037745;28;20455;-73
2024/02/19 02:05:24;;;;;;;1999.90;999.90;;;9.20;99.90;;;;;;5040713;28;20490;-73
2024/02/19 02:07:51;;;;;;;1999.90;999.90;;;9.50;99.90;;;;;;5040487;28;20469;-73
2024/02/19 02:10:18;;;;;;;1999.90;999.90;;;9.60;99.90;;;;;;5035516;28;20173;-73
2024/02/19 02:12:44;;;;;;;1999.90;999.90;;;9.30;99.90;;;;;;5034944;28;20483;-72
2024/02/19 02:15:10;;;;;;;1999.90;999.90;;;9.40;99.90;;;;;;5037207;28;20401;-73
2024/02/19 02:17:35;;;;;;;1999.90;999.90;;;9.30;99.90;;;;;;5038336;28;20501;-73
2024/02/19 02:20:01;;;;;;;1999.90;999.90;;;9.20;99.90;;;;;;5034803;28;20711;-73
2024/02/19 02:22:26;;;;;;;1999.90;999.90;;;9.60;99.90;;;;;;5038820;28;20176;-72
2024/02/19 02:24:52;;;;;;;1999.90;999.90;;;9.40;99.90;;;;;;5034212;28;20174;-72
2024/02/19 02:27:18;;;;;;;1999.90;999.90;;;9.30;99.90;;;;;;5034171;28;20196;-71
2024/02/19 02:29:43;;;;;;;1999.90;999.90;;;9.30;99.90;;;;;;5033150;28;20171;-71
2024/02/19 02:32:09;;;;;;;1999.90;999.90;;;9.30;99.90;;;;;;5034698;28;20191;-72
2024/02/19 02:34:34;;;;;;;1999.90;999.90;;;9.50;99.90;;;;;;5037330;28;20166;-73
2024/02/19 02:37:02;;;;;;;1999.90;999.90;;;9.00;99.90;;;;;;5034031;28;20181;-72
2024/02/19 02:39:28;;;;;;;1999.90;999.90;;;9.10;99.90;;;;;;5038045;28;20165;-72
2024/02/19 02:41:54;;;;;;;1999.90;999.90;;;9.40;99.90;;;;;;5038804;28;20556;-72
2024/02/19 02:44:20;;;;;;;1999.90;999.90;;;9.30;99.90;;;;;;5034096;28;20499;-75
2024/02/19 02:46:45;;;;;;;1999.90;999.90;;;9.00;99.90;;;;;;5033655;28;20193;-72
2024/02/19 02:49:11;;;;;;;1999.90;999.90;;;9.10;99.90;;;;;;5037252;28;20184;-72
2024/02/19 02:51:36;;;;;;;1999.90;999.90;;;9.20;99.90;;;;;;5033431;28;20173;-72
2024/02/19 02:54:02;;;;;;;1999.90;999.90;;;9.10;99.90;;;;;;5037523;28;20205;-72
2024/02/19 02:56:28;;;;;;;1999.90;999.90;;;9.30;99.90;;;;;;5035410;28;20185;-72
2024/02/19 02:58:53;;;;;;;1999.90;999.90;;;9.50;99.90;;;;;;5033520;28;20702;-72
2024/02/19 03:01:26;;;;;;;1999.90;999.90;;;9.10;99.90;;;;;;5033333;28;20167;-73
2024/02/19 03:03:52;;;;;;;1999.90;999.90;;;9.30;99.90;;;;;;5033562;28;20528;-72
2024/02/19 03:06:18;;;;;;;1999.90;999.90;;;9.40;99.90;;;;;;5033401;28;20524;-72
2024/02/19 03:08:44;;;;;;;1999.90;999.90;;;9.30;99.90;;;;;;5034614;28;20659;-73
2024/02/19 03:11:10;;;;;;;1999.90;999.90;;;9.00;99.90;;;;;;5033489;28;20179;-73
2024/02/19 03:13:36;;;;;;;1999.90;999.90;;;9.00;99.90;;;;;;5033260;28;20455;-73
2024/02/19 03:16:01;;;;;;;1999.90;999.90;;;9.10;99.90;;;;;;5033366;28;20813;-72
2024/02/19 03:18:27;;;;;;;1999.90;999.90;;;9.20;99.90;;;;;;5034592;28;20170;-72
2024/02/19 03:20:53;;;;;;;1999.90;999.90;;;9.50;99.90;;;;;;5034867;28;20689;-71
2024/02/19 03:23:18;;;;;;;1999.90;999.90;;;9.30;99.90;;;;;;5033460;28;20197;-73
2024/02/19 03:25:45;;;;;;;1999.90;999.90;;;9.20;99.90;;;;;;5033140;28;20218;-72
2024/02/19 03:28:11;;;;;;;1999.90;999.90;;;9.60;99.90;;;;;;5033171;28;20768;-72
2024/02/19 03:30:36;;;;;;;1999.90;999.90;;;9.20;99.90;;;;;;5032881;28;20493;-72
2024/02/19 03:33:02;;;;;;;1999.90;999.90;;;9.30;99.90;;;;;;5033301;28;20591;-72
2024/02/19 03:35:28;;;;;;;1999.90;999.90;;;9.30;99.90;;;;;;5032907;28;20546;-72
2024/02/19 03:37:54;;;;;;;1999.90;999.90;;;9.40;99.90;;;;;;5033717;28;20415;-72
2024/02/19 03:40:19;;;;;;;1999.90;999.90;;;9.60;99.90;;;;;;5033729;28;20573;-72
2024/02/19 03:42:45;;;;;;;1999.90;999.90;;;9.20;99.90;;;;;;5033454;28;20247;-72
2024/02/19 03:45:10;;;;;;;1999.90;999.90;;;9.40;99.90;;;;;;5032850;28;20179;-72
2024/02/19 03:47:36;;;;;;;1999.90;999.90;;;9.40;99.90;;;;;;5032659;28;20193;-72
2024/02/19 03:50:03;;;;;;;1999.90;999.90;;;9.30;99.90;;;;;;5032483;28;20181;-72
2024/02/19 03:52:29;;;;;;;1999.90;999.90;;;9.40;99.90;;;;;;5032837;28;20255;-72
2024/02/19 03:54:55;;;;;;;1999.90;999.90;;;9.40;99.90;;;;;;5033089;28;20405;-72
2024/02/19 03:57:22;;;;;;;1999.90;999.90;;;9.70;99.90;;;;;;5032508;28;20183;-72
2024/02/19 03:59:51;;;;;;;1999.90;999.90;;;9.70;99.90;;;;;;5032346;28;20194;-72
2024/02/19 04:02:17;;;;;;;1999.90;999.90;;;9.40;99.90;;;;;;5032397;28;20438;-73
2024/02/19 04:04:43;;;;;;;1999.90;999.90;;;9.90;99.90;;;;;;5032364;28;20812;-72
2024/02/19 04:07:08;;;;;;;1999.90;999.90;;;9.70;99.90;;;;;;5032236;28;20421;-72
2024/02/19 04:09:35;;;;;;;1999.90;999.90;;;9.70;99.90;;;;;;5032306;28;20245;-72
2024/02/19 04:12:05;;;;;;;1999.90;999.90;;;9.40;99.90;;;;;;5032562;28;20253;-72
2024/02/19 04:14:30;;;;;;;1999.90;999.90;;;9.40;99.90;;;;;;5032340;28;20756;-72
2024/02/19 04:16:56;;;;;;;1999.90;999.90;;;9.50;99.90;;;;;;5032274;28;20594;-73
2024/02/19 04:19:22;;;;;;;1999.90;999.90;;;9.40;99.90;;;;;;5032428;28;20169;-72
2024/02/19 04:21:48;;;;;;;1999.90;999.90;;;9.40;99.90;;;;;;5032465;28;20163;-73
2024/02/19 04:24:13;;;;;;;1999.90;999.90;;;9.70;99.90;;;;;;5032206;28;20413;-72
2024/02/19 04:26:39;;;;;;;1999.90;999.90;;;9.40;99.90;;;;;;5032406;28;20559;-73
2024/02/19 04:29:05;;;;;;;1999.90;999.90;;;9.60;99.90;;;;;;5032232;28;20212;-73
2024/02/19 04:31:30;;;;;;;1999.90;999.90;;;9.40;99.90;;;;;;5031734;28;20163;-73
2024/02/19 04:33:56;;;;;;;1999.90;999.90;;;9.50;99.90;;;;;;5031864;28;20203;-72
2024/02/19 04:36:21;;;;;;;1999.90;999.90;;;9.50;99.90;;;;;;5032201;28;20187;-72
2024/02/19 04:38:47;;;;;;;1999.90;999.90;;;9.60;99.90;;;;;;5032360;28;20231;-72
2024/02/19 04:41:12;;;;;;;1999.90;999.90;;;9.70;99.90;;;;;;5032253;28;20176;-73
2024/02/19 04:43:38;;;;;;;1999.90;999.90;;;9.80;99.90;;;;;;5032082;28;20708;-73
2024/02/19 04:46:05;;;;;;;1999.90;999.90;;;9.40;99.90;;;;;;5031806;28;20282;-73
2024/02/19 04:48:34;;;;;;;1999.90;999.90;;;9.60;99.90;;;;;;5032404;28;20177;-73
2024/02/19 04:51:00;;;;;;;1999.90;999.90;;;9.50;99.90;;;;;;5031989;28;20920;-73
2024/02/19 04:53:26;;;;;;;1999.90;999.90;;;9.90;99.90;;;;;;5035358;28;20453;-73
2024/02/19 04:55:52;;;;;;;1999.90;999.90;;;9.40;99.90;;;;;;5035910;28;20449;-73
2024/02/19 04:58:17;;;;;;;1999.90;999.90;;;9.40;99.90;;;;;;5036131;28;20496;-73
2024/02/19 05:00:43;;;;;;;1999.90;999.90;;;9.50;99.90;;;;;;5035975;28;20171;-72
2024/02/19 05:03:09;;;;;;;1999.90;999.90;;;9.60;99.90;;;;;;5035793;28;20171;-72
2024/02/19 05:05:35;;;;;;;1999.90;999.90;;;9.30;99.90;;;;;;5036308;28;20543;-72
2024/02/19 05:08:01;;;;;;;1999.90;999.90;;;9.40;99.90;;;;;;5036246;28;20193;-72
2024/02/19 05:10:26;;;;;;;1999.90;999.90;;;9.40;99.90;;;;;;5035689;28;20412;-72
2024/02/19 05:12:52;;;;;;;1999.90;999.90;;;9.80;99.90;;;;;;5035557;28;20241;-72
2024/02/19 05:15:17;;;;;;;1999.90;999.90;;;9.40;99.90;;;;;;5035597;28;20198;-73
2024/02/19 05:17:43;;;;;;;1999.90;999.90;;;9.40;99.90;;;;;;5035413;28;20234;-72
2024/02/19 05:20:10;;;;;;;1999.90;999.90;;;9.40;99.90;;;;;;5035294;28;20174;-73
2024/02/19 05:22:36;;;;;;;1999.90;999.90;;;9.50;99.90;;;;;;5036636;28;20191;-72
2024/02/19 05:25:02;;;;;;;1999.90;999.90;;;9.70;99.90;;;;;;5035876;28;20408;-72
2024/02/19 05:27:28;;;;;;;1999.90;999.90;;;9.50;99.90;;;;;;5035304;28;20233;-72
2024/02/19 05:29:54;;;;;;;1999.90;999.90;;;9.60;99.90;;;;;;5035126;28;20409;-72
2024/02/19 05:32:19;;;;;;;1999.90;999.90;;;9.50;99.90;;;;;;5035250;28;20203;-73
2024/02/19 05:34:45;;;;;;;1999.90;999.90;;;9.50;99.90;;;;;;5035345;28;20162;-72
2024/02/19 05:37:10;;;;;;;1999.90;999.90;;;9.40;99.90;;;;;;5035304;28;20187;-72
2024/02/19 05:39:36;;;;;;;1999.90;999.90;;;9.60;99.90;;;;;;5035397;28;20169;-72
2024/02/19 05:42:02;;;;;;;1999.90;999.90;;;9.30;99.90;;;;;;5035461;28;20178;-72
2024/02/19 05:44:27;;;;;;;1999.90;999.90;;;9.40;99.90;;;;;;5035574;28;20176;-72
2024/02/19 05:46:53;;;;;;;1999.90;999.90;;;9.40;99.90;;;;;;5035197;28;20539;-72
2024/02/19 05:49:19;;;;;;;1999.90;999.90;;;9.30;99.90;;;;;;5035504;28;20181;-73
2024/02/19 05:51:45;;;;;;;1999.90;999.90;;;9.20;99.90;;;;;;5034634;28;20413;-72
2024/02/19 05:54:11;;;;;;;1999.90;999.90;;;9.20;99.90;;;;;;5034764;28;20679;-72
2024/02/19 05:56:36;;;;;;;1999.90;999.90;;;9.20;99.90;;;;;;5034633;28;20489;-72
2024/02/19 05:59:02;;;;;;;1999.90;999.90;;;9.40;99.90;;;;;;5034782;28;20648;-72
2024/02/19 06:01:28;;;;;;;1999.90;999.90;;;9.20;99.90;;;;;;5034416;28;20174;-72
2024/02/19 06:03:53;;;;;;;1999.90;999.90;;;9.30;99.90;;;;;;5034584;28;20204;-72
2024/02/19 06:06:19;;;;;;;1999.90;999.90;;;9.50;99.90;;;;;;5034556;28;20228;-72
2024/02/19 06:08:44;;;;;;;1999.90;999.90;;;9.20;99.90;;;;;;5034749;28;20185;-72
2024/02/19 06:11:10;;;;;;;1999.90;999.90;;;9.20;99.90;;;;;;5034425;28;20179;-73
2024/02/19 06:13:36;;;;;;;1999.90;999.90;;;9.20;99.90;;;;;;5034337;28;20210;-72
2024/02/19 06:16:01;;;;;;;1999.90;999.90;;;9.40;99.90;;;;;;5034603;28;20611;-72
2024/02/19 06:18:27;;;;;;;1999.90;999.90;;;9.30;99.90;;;;;;5034825;28;20176;-72
2024/02/19 06:20:53;;;;;;;1999.90;999.90;;;9.30;99.90;;;;;;5034069;28;20167;-72
2024/02/19 06:23:18;;;;;;;1999.90;999.90;;;9.40;99.90;;;;;;5034478;28;20231;-71
2024/02/19 06:25:44;;;;;;;1999.90;999.90;;;9.50;99.90;;;;;;5034258;28;20575;-71
2024/02/19 06:28:09;;;;;;;1999.90;999.90;;;9.30;99.90;;;;;;5034256;28;20176;-70
2024/02/19 06:30:35;;;;;;;1999.90;999.90;;;9.30;99.90;;;;;;5034110;28;20642;-71
2024/02/19 06:33:01;;;;;;;1999.90;999.90;;;9.40;99.90;;;;;;5035393;28;20198;-70
2024/02/19 06:35:27;;;;;;;1999.90;999.90;;;9.30;99.90;;;;;;5035439;28;20171;-71
2024/02/19 06:37:53;;;;;;;1999.90;999.90;;;9.60;99.90;;;;;;5035162;28;20437;-70
2024/02/19 06:40:18;;;;;;;1999.90;999.90;;;9.60;99.90;;;;;;5033776;28;20457;-70
2024/02/19 06:42:44;;;;;;;1999.90;999.90;;;9.40;99.90;;;;;;5033971;28;20279;-71
2024/02/19 06:45:10;;;;;;;1999.90;999.90;;;9.60;99.90;;;;;;5034516;28;20172;-71
2024/02/19 06:47:36;;;;;;;1999.90;999.90;;;9.50;99.90;;;;;;5034617;28;20196;-71
2024/02/19 06:50:02;;;;;;;1999.90;999.90;;;9.40;99.90;;;;;;5033518;28;20265;-72
2024/02/19 06:52:28;;;;;;;1999.90;999.90;;;9.50;99.90;;;;;;5034535;28;20299;-71
2024/02/19 06:54:54;;;;;;;1999.90;999.90;;;9.40;99.90;;;;;;5034722;28;20455;-71
2024/02/19 06:57:19;;;;;;;1999.90;999.90;;;9.50;99.90;;;;;;5033555;28;20575;-70
2024/02/19 06:59:45;;;;;;;1999.90;999.90;;;9.80;99.90;;;;;;5033577;28;20179;-70
2024/02/19 07:02:11;;;;;;;1999.90;999.90;;;9.40;99.90;;;;;;5033535;28;20405;-70
2024/02/19 07:04:39;;;;;;;1999.90;999.90;;;9.70;99.90;;;;;;5033425;28;20904;-70
2024/02/19 07:07:09;;;;;;;1999.90;999.90;;;9.50;99.90;;;;;;5033818;28;20413;-70
2024/02/19 07:09:38;;;;;;;1999.90;999.90;;;9.80;99.90;;;;;;5034059;28;20408;-71
2024/02/19 07:12:04;;;;;;;1999.90;999.90;;;9.50;99.90;;;;;;5033798;28;20793;-70
2024/02/19 07:14:30;;;;;;;1999.90;999.90;;;9.60;99.90;;;;;;5033302;28;20397;-70
2024/02/19 07:16:56;;;;;;;1999.90;999.90;;;9.70;99.90;;;;;;5033739;28;20515;-70
2024/02/19 07:19:22;;;;;;;1999.90;999.90;;;9.70;99.90;;;;;;5033543;28;20173;-70
2024/02/19 07:21:47;;;;;;;1999.90;999.90;;;9.70;99.90;;;;;;5033974;28;20232;-70
2024/02/19 07:24:13;;;;;;;1999.90;999.90;;;9.50;99.90;;;;;;5033304;28;20172;-71
2024/02/19 07:26:38;;;;;;;1999.90;999.90;;;9.60;99.90;;;;;;5032971;28;20188;-71
2024/02/19 07:29:04;;;;;;;1999.90;999.90;;;9.60;99.90;;;;;;5033923;28;20181;-70
2024/02/19 07:31:30;;;;;;;1999.90;999.90;;;9.70;99.90;;;;;;5032754;28;20241;-70
2024/02/19 07:33:56;;;;;;;1999.90;999.90;;;9.80;99.90;;;;;;5032907;28;20252;-70
2024/02/19 07:36:22;;;;;;;1999.90;999.90;;;9.70;99.90;;;;;;5032755;28;20434;-70
2024/02/19 07:38:48;;;;;;;1999.90;999.90;;;9.60;99.90;;;;;;5032870;28;20175;-71
2024/02/19 07:41:14;;;;;;;1999.90;999.90;;;10.00;99.90;;;;;;5032462;28;20441;-70
2024/02/19 07:43:40;;;;;;;1999.90;999.90;;;9.90;99.90;;;;;;5033017;28;20241;-71
2024/02/19 07:46:05;;;;;;;1999.90;999.90;;;10.10;99.90;;;;;;5032927;28;20996;-71
2024/02/19 07:48:31;;;;;;;1999.90;999.90;;;9.80;99.90;;;;;;5033659;28;20561;-71
2024/02/19 07:50:56;;;;;;;1999.90;999.90;;;9.90;99.90;;;;;;5033271;28;20174;-70
2024/02/19 07:53:22;;;;;;;1999.90;999.90;;;10.00;99.90;;;;;;5033026;28;20229;-70
2024/02/19 07:55:47;;;;;;;1999.90;999.90;;;10.10;99.90;;;;;;5032419;28;20175;-70
2024/02/19 07:58:16;;;;;;;1999.90;999.90;;;9.80;99.90;;;;;;5032683;28;20253;-70
2024/02/19 08:00:42;;;;;;;1999.90;999.90;;;9.90;99.90;;;;;;5032526;28;20183;-70
2024/02/19 08:03:08;;;;;;;1999.90;999.90;;;10.00;99.90;;;;;;5032634;28;20424;-70
2024/02/19 08:05:34;;;;;;;1999.90;999.90;;;10.00;99.90;;;;;;5032235;28;20170;-71
2024/02/19 08:07:59;;;;;;;1999.90;999.90;;;10.10;99.90;;;;;;5032681;28;20180;-71
2024/02/19 08:10:25;;;;;;;1999.90;999.90;;;10.10;99.90;;;;;;5031961;28;20187;-71
2024/02/19 08:12:50;;;;;;;1999.90;999.90;;;10.20;99.90;;;;;;5032487;28;20241;-71
2024/02/19 08:15:16;;;;;;;1999.90;999.90;;;10.10;99.90;;;;;;5032655;28;20178;-71
2024/02/19 08:17:41;;;;;;;1999.90;999.90;;;10.20;99.90;;;;;;5032251;28;20201;-70
2024/02/19 08:20:08;;;;;;;1999.90;999.90;;;10.30;99.90;;;;;;5032259;28;20671;-71
2024/02/19 08:22:33;;;;;;;1999.90;999.90;;;10.30;99.90;;;;;;5032298;28;20186;-70
2024/02/19 08:24:59;;;;;;;1999.90;999.90;;;10.30;99.90;;;;;;5032074;28;20435;-70
2024/02/19 08:27:24;;;;;;;1999.90;999.90;;;10.50;99.90;;;;;;5031446;28;20229;-71
2024/02/19 08:29:50;;;;;;;1999.90;999.90;;;10.40;99.90;;;;;;5031847;28;20255;-70
2024/02/19 08:32:16;;;;;;;1999.90;999.90;;;10.40;99.90;;;;;;5031856;28;20353;-70
2024/02/19 08:34:41;;;;;;;1999.90;999.90;;;10.40;99.90;;;;;;5032791;28;20184;-71
2024/02/19 08:37:07;;;;;;;1999.90;999.90;;;10.30;99.90;;;;;;5032351;28;20591;-71
2024/02/19 08:39:32;;;;;;;1999.90;999.90;;;10.50;99.90;;;;;;5032019;28;20179;-70
2024/02/19 08:41:58;;;;;;;1999.90;999.90;;;10.40;99.90;;;;;;5031687;28;20176;-71
2024/02/19 08:44:23;;;;;;;1999.90;999.90;;;10.50;99.90;;;;;;5031982;28;20716;-71
2024/02/19 08:46:49;;;;;;;1999.90;999.90;;;10.60;99.90;;;;;;5032183;28;20190;-70
2024/02/19 08:49:14;;;;;;;1999.90;999.90;;;10.50;99.90;;;;;;5031819;28;20179;-71
2024/02/19 08:51:40;;;;;;;1999.90;999.90;;;10.60;99.90;;;;;;5031553;28;20627;-71
2024/02/19 08:54:06;;;;;;;1999.90;999.90;;;10.50;99.90;;;;;;5031643;28;20574;-70
2024/02/19 08:56:32;;;;;;;1999.90;999.90;;;10.60;99.90;;;;;;5031772;28;20191;-70
2024/02/19 08:58:57;;;;;;;1999.90;999.90;;;10.70;99.90;;;;;;5032252;28;20419;-71
2024/02/19 09:01:23;;;;;;;1999.90;999.90;;;10.60;99.90;;;;;;5032103;28;20175;-70
2024/02/19 09:03:48;;;;;;;1999.90;999.90;;;10.70;99.90;;;;;;5031725;28;20650;-71
2024/02/19 09:06:14;;;;;;;1999.90;999.90;;;10.70;99.90;;;;;;5031612;28;20547;-70
2024/02/19 09:08:40;;;;;;;1999.90;999.90;;;10.80;99.90;;;;;;5031838;28;20207;-71
2024/02/19 09:11:05;;;;;;;1999.90;999.90;;;10.90;99.90;;;;;;5031800;28;20176;-70
2024/02/19 09:13:34;;;;;;;1999.90;999.90;;;10.90;99.90;;;;;;5031618;28;20663;-71
2024/02/19 09:16:00;;;;;;;1999.90;999.90;;;10.90;99.90;;;;;;5085475;22;20281;-68
2024/02/19 09:18:26;;;;;;;1999.90;999.90;;;11.00;99.90;;;;;;5051495;28;20491;-69
2024/02/19 09:20:52;;;;;;;1999.90;999.90;;;11.10;99.90;;;;;;5051359;28;20158;-68
2024/02/19 09:23:17;;;;;;;1999.90;999.90;;;11.20;99.90;;;;;;5051444;28;20432;-69
2024/02/19 09:25:43;;;;;;;1999.90;999.90;;;11.20;99.90;;;;;;5051451;28;20252;-69
2024/02/19 09:28:08;;;;;;;1999.90;999.90;;;11.30;99.90;;;;;;5051520;28;20172;-69
2024/02/19 09:30:34;;;;;;;1999.90;999.90;;;11.40;99.90;;;;;;5051283;28;20163;-69
2024/02/19 09:33:00;;;;;;;1999.90;999.90;;;11.50;99.90;;;;;;5051281;28;20188;-69
2024/02/19 09:35:25;;;;;;;1999.90;999.90;;;11.50;99.90;;;;;;5051321;28;20188;-69
2024/02/19 09:37:51;;;;;;;1999.90;999.90;;;11.90;99.90;;;;;;5051945;28;20221;-69
2024/02/19 09:40:20;;;;;;;1999.90;999.90;;;11.80;99.90;;;;;;5054987;28;20594;-69
2024/02/19 09:42:50;;;;;;;1999.90;999.90;;;11.90;99.90;;;;;;5055400;28;20175;-69
2024/02/19 09:45:16;;;;;;;1999.90;999.90;;;11.80;99.90;;;;;;5053723;28;20441;-69
2024/02/19 09:47:46;;;;;;;1999.90;999.90;;;12.00;99.90;;;;;;5054884;28;20440;-69
2024/02/19 09:50:16;;;;;;;1999.90;999.90;;;12.00;99.90;;;;;;5054870;28;20156;-68
2024/02/19 09:52:43;;;;;;;1999.90;999.90;;;11.80;99.90;;;;;;5055063;28;20459;-69
2024/02/19 09:55:10;;;;;;;1999.90;999.90;;;12.00;99.90;;;;;;5053450;28;20540;-69
2024/02/19 09:57:36;;;;;;;1999.90;999.90;;;12.10;99.90;;;;;;5054779;28;20406;-70
2024/02/19 10:00:05;;;;;;;1999.90;999.90;;;12.20;99.90;;;;;;5054598;28;20412;-69
2024/02/19 10:02:30;;;;;;;1999.90;999.90;;;12.20;99.90;;;;;;5054471;28;20413;-69
2024/02/19 10:04:56;;;;;;;1999.90;999.90;;;12.20;99.90;;;;;;5053296;28;20444;-69
2024/02/19 10:07:22;;;;;;;1999.90;999.90;;;;;;;;;;5054750;28;20635;-69
2024/02/19 10:09:47;;;;;;;1999.90;999.90;;;12.10;99.90;;;;;;5054485;28;20596;-69
2024/02/19 10:12:13;;;;;;;1999.90;999.90;;;12.20;99.90;;;;;;5054296;28;20502;-69
2024/02/19 10:14:39;;;;;;;1999.90;999.90;;;12.40;99.90;;;;;;5054244;28;20222;-69
2024/02/19 10:17:07;;;;;;;1999.90;999.90;;;12.20;99.90;;;;;;5053095;28;20164;-69
2024/02/19 10:19:33;;;;;;;1999.90;999.90;;;12.20;99.90;;;;;;5054326;28;20164;-68
2024/02/19 10:21:59;;;;;;;1999.90;999.90;;;12.20;99.90;;;;;;5054197;28;20398;-69
2024/02/19 10:24:26;;;;;;;1999.90;999.90;;;12.10;99.90;;;;;;5052909;28;20423;-68
2024/02/19 10:26:52;;;;;;;1999.90;999.90;;;12.10;99.90;;;;;;5054308;28;20187;-68
2024/02/19 10:29:18;;;;;;;1999.90;999.90;;;12.00;99.90;;;;;;5054216;28;20406;-69
2024/02/19 10:31:44;;;;;;;1999.90;999.90;;;12.10;99.90;;;;;;5054005;28;20191;-69
2024/02/19 10:34:11;;;;;;;1999.90;999.90;;;12.10;99.90;;;;;;5052722;28;20450;-69
2024/02/19 10:36:37;;;;;;;1999.90;999.90;;;12.00;99.90;;;;;;5053948;28;20194;-69
2024/02/19 10:39:06;;;;;;;1999.90;999.90;;;12.00;99.90;;;;;;5054084;28;20412;-69
2024/02/19 10:41:35;;;;;;;1999.90;999.90;;;12.00;99.90;;;;;;5053856;28;20405;-68
2024/02/19 10:44:02;;;;;;;1999.90;999.90;;;12.90;99.90;;;;;;5053948;28;20532;-68
2024/02/19 10:46:27;;;;;;;1999.90;999.90;;;12.10;99.90;;;;;;5053694;28;20438;-68
2024/02/19 10:48:55;;;;;;;1999.90;999.90;;;12.00;99.90;;;;;;5053718;28;20414;-69
2024/02/19 10:51:23;;;;;;;1999.90;999.90;;;12.10;99.90;;;;;;5053331;28;20341;-68
2024/02/19 10:54:00;;;;;;;1999.90;999.90;;;12.10;99.90;;;;;;5053723;28;20817;-68
2024/02/19 10:56:37;;;;;;;1999.90;999.90;;;12.20;99.90;;;;;;5052345;28;20434;-68
2024/02/19 10:59:03;;;;;;;1999.90;999.90;;;12.30;99.90;;;;;;5053946;28;20866;-68
2024/02/19 11:01:43;;;;;;;1999.90;999.90;;;12.30;99.90;;;;;;5053456;28;20524;-69
2024/02/19 11:04:19;;;;;;;1999.90;999.90;;;12.40;99.90;;;;;;5053838;28;20419;-69
2024/02/19 11:06:53;;;;;;;1999.90;999.90;;;12.40;99.90;;;;;;5053520;28;20426;-69
2024/02/19 11:09:23;;;;;;;1999.90;999.90;;;12.40;99.90;;;;;;5053548;28;20580;-68
2024/02/19 11:11:53;;;;;;;1999.90;999.90;;;12.40;99.90;;;;;;5053189;28;20414;-68
2024/02/19 11:14:23;;;;;;;1999.90;999.90;;;12.40;99.90;;;;;;5053257;28;20485;-68
2024/02/19 11:16:49;;;;;;;1999.90;999.90;;;12.50;99.90;;;;;;5053212;28;20785;-68
2024/02/19 11:19:18;;;;;;;1999.90;999.90;;;12.50;99.90;;;;;;5053310;28;20402;-69
2024/02/19 11:21:44;;;;;;;1999.90;999.90;;;12.40;99.90;;;;;;5053058;28;20409;-68
2024/02/19 11:24:10;;;;;;;1999.90;999.90;;;12.30;99.90;;;;;;5053304;28;20425;-69
2024/02/19 11:26:40;;;;;;;1999.90;999.90;;;12.40;99.90;;;;;;5053055;28;20423;-68
2024/02/19 11:29:13;;;;;;;1999.90;999.90;;;12.20;99.90;;;;;;5053038;28;20675;-67
2024/02/19 11:31:39;;;;;;;1999.90;999.90;;;12.20;99.90;;;;;;5052986;28;20404;-69
2024/02/19 11:34:07;;;;;;;1999.90;999.90;;;12.10;99.90;;;;;;5052860;28;20856;-68
2024/02/19 11:36:32;;;;;;;1999.90;999.90;;;12.10;99.90;;;;;;5052717;28;20429;-68
2024/02/19 11:38:58;;;;;;;1999.90;999.90;;;12.00;99.90;;;;;;5052787;28;20761;-69
2024/02/19 11:41:24;;;;;;;1999.90;999.90;;;11.90;99.90;;;;;;5052514;28;20250;-68
2024/02/19 11:43:54;;;;;;;1999.90;999.90;;;11.90;99.90;;;;;;5052627;28;20221;-69
2024/02/19 11:46:22;;;;;;;1999.90;999.90;;;11.80;99.90;;;;;;5052378;28;20203;-69
2024/02/19 11:48:48;;;;;;;1999.90;999.90;;;11.80;99.90;;;;;;5052639;28;20417;-69
2024/02/19 11:51:14;;;;;;;1999.90;999.90;;;11.80;99.90;;;;;;5052340;28;20418;-69
2024/02/19 11:53:40;;;;;;;1999.90;999.90;;;11.80;99.90;;;;;;5052380;28;20480;-68
2024/02/19 11:56:05;;;;;;;1999.90;999.90;;;11.70;99.90;;;;;;5050896;28;20431;-68
2024/02/19 11:58:31;;;;;;;1999.90;999.90;;;11.70;99.90;;;;;;5052175;28;20225;-68
2024/02/19 12:00:57;;;;;;;1999.90;999.90;;;11.60;99.90;;;;;;5052095;28;20251;-69